createdAt,value
2022-12-23T00:00:28.710Z,90.88
2022-12-23T00:02:55.613Z,91.04
2022-12-23T00:05:22.514Z,90.74
2022-12-23T00:07:49.205Z,90.98
2022-12-23T00:10:16.148Z,90.84
2022-12-23T00:13:01.736Z,90.79
2022-12-23T00:15:28.410Z,90.46
2022-12-23T00:17:55.030Z,90.36
2022-12-23T00:20:22.042Z,90.31
2022-12-23T00:23:06.925Z,90.85
2022-12-23T00:25:42.100Z,90.71
2022-12-23T00:28:16.648Z,90.58
2022-12-23T00:30:58.710Z,90.51
2022-12-23T00:33:29.186Z,90.73
2022-12-23T00:35:56.849Z,90.36
2022-12-23T00:38:43.700Z,90.46
2022-12-23T00:41:36.085Z,90.56
2022-12-23T00:44:03.874Z,90.73
2022-12-23T00:46:31.198Z,90.89
2022-12-23T00:49:17.034Z,90.84
2022-12-23T00:51:43.749Z,90.53
2022-12-23T00:54:10.619Z,90.91
2022-12-23T00:56:37.336Z,90.95
2022-12-23T00:59:04.212Z,90.74
2022-12-23T01:01:49.725Z,90.54
2022-12-23T01:04:36.499Z,90.70
2022-12-23T01:07:04.209Z,90.89
2022-12-23T01:09:31.090Z,90.73
2022-12-23T01:11:57.779Z,91.03
2022-12-23T01:14:24.916Z,90.69
2022-12-23T01:16:51.772Z,90.44
2022-12-23T01:19:19.569Z,90.39
2022-12-23T01:21:51.820Z,90.75
2022-12-23T01:24:44.504Z,90.71
2022-12-23T01:27:17.933Z,90.35
2022-12-23T01:30:15.095Z,90.32
2022-12-23T01:33:07.042Z,90.76
2022-12-23T01:35:33.713Z,90.24
2022-12-23T01:38:00.398Z,90.65
2022-12-23T01:40:27.112Z,90.18
2022-12-23T01:42:53.912Z,90.75
2022-12-23T01:45:32.801Z,90.54
2022-12-23T01:48:22.789Z,90.49
2022-12-23T01:50:55.534Z,90.40
2022-12-23T01:53:28.959Z,90.57
2022-12-23T01:56:20.303Z,90.50
2022-12-23T01:58:57.395Z,90.39
2022-12-23T02:01:44.724Z,90.32
2022-12-23T02:04:18.768Z,90.28
2022-12-23T02:07:06.957Z,90.57
2022-12-23T02:09:39.367Z,90.35
2022-12-23T02:12:24.913Z,90.11
2022-12-23T02:15:27.306Z,90.30
2022-12-23T02:18:24.119Z,90.35
2022-12-23T02:21:21.757Z,90.00
2022-12-23T02:24:48.234Z,90.57
2022-12-23T02:27:50.394Z,90.52
2022-12-23T02:30:32.409Z,90.54
2022-12-23T02:33:17.090Z,90.43
2022-12-23T02:36:22.460Z,90.50
2022-12-23T02:39:06.074Z,90.56
2022-12-23T02:41:42.508Z,90.25
2022-12-23T02:44:44.148Z,90.18
2022-12-23T02:47:20.287Z,90.41
2022-12-23T02:50:03.482Z,90.34
2022-12-23T02:52:34.312Z,90.11
2022-12-23T02:55:10.038Z,90.14
2022-12-23T02:57:42.866Z,90.23
2022-12-23T03:00:10.718Z,90.54
2022-12-23T03:02:40.822Z,90.38
2022-12-23T03:05:35.054Z,90.20
2022-12-23T03:08:05.582Z,90.10
2022-12-23T03:11:10.842Z,90.31
2022-12-23T03:14:24.457Z,89.78
2022-12-23T03:17:00.842Z,90.02
2022-12-23T03:19:39.640Z,90.08
2022-12-23T03:22:09.802Z,89.57
2022-12-23T03:24:45.102Z,89.95
2022-12-23T03:27:28.006Z,89.48
2022-12-23T03:30:02.411Z,89.57
2022-12-23T03:32:33.709Z,89.79
2022-12-23T03:35:03.374Z,89.85
2022-12-23T03:37:34.307Z,90.23
2022-12-23T03:40:31.899Z,89.74
2022-12-23T03:43:06.843Z,89.80
2022-12-23T03:45:42.199Z,89.97
2022-12-23T03:48:24.187Z,89.76
2022-12-23T03:50:57.273Z,90.14
2022-12-23T03:53:34.461Z,89.83
2022-12-23T03:56:10.853Z,89.90
2022-12-23T03:59:00.043Z,89.66
2022-12-23T04:01:54.485Z,89.71
2022-12-23T04:04:32.431Z,89.72
2022-12-23T04:07:13.821Z,89.93
2022-12-23T04:09:41.306Z,89.86
2022-12-23T04:12:08.638Z,89.93
2022-12-23T04:14:45.738Z,90.25
2022-12-23T04:17:12.606Z,89.65
2022-12-23T04:19:39.329Z,89.59
2022-12-23T04:22:05.967Z,89.87
2022-12-23T04:24:32.595Z,90.00
2022-12-23T04:26:59.260Z,90.22
2022-12-23T04:29:25.892Z,90.18
2022-12-23T04:31:53.036Z,90.16
2022-12-23T04:34:20.149Z,90.34
2022-12-23T04:36:57.692Z,90.24
2022-12-23T04:39:24.342Z,90.49
2022-12-23T04:41:55.519Z,90.47
2022-12-23T04:44:25.621Z,90.17
2022-12-23T04:46:53.272Z,90.49
2022-12-23T04:49:19.943Z,90.21
2022-12-23T04:51:46.609Z,90.08
2022-12-23T04:54:13.432Z,90.27
2022-12-23T04:56:40.157Z,89.87
2022-12-23T04:59:06.812Z,89.95
2022-12-23T05:01:33.688Z,89.86
2022-12-23T05:04:01.039Z,89.49
2022-12-23T05:06:43.996Z,89.54
2022-12-23T05:09:14.227Z,89.72
2022-12-23T05:11:42.563Z,89.50
2022-12-23T05:14:11.084Z,89.69
2022-12-23T05:16:38.445Z,89.50
2022-12-23T05:19:05.171Z,89.42
2022-12-23T05:21:32.919Z,89.21
2022-12-23T05:23:59.573Z,89.54
2022-12-23T05:26:26.340Z,89.44
2022-12-23T05:28:53.010Z,89.22
2022-12-23T05:31:19.797Z,89.31
2022-12-23T05:33:46.632Z,89.04
2022-12-23T05:36:13.588Z,89.17
2022-12-23T05:38:40.290Z,89.22
2022-12-23T05:41:07.503Z,88.78
2022-12-23T05:43:34.336Z,89.05
2022-12-23T05:46:01.103Z,89.05
2022-12-23T05:48:27.786Z,89.04
2022-12-23T05:50:54.521Z,88.83
2022-12-23T05:53:21.928Z,88.65
2022-12-23T05:55:48.721Z,88.76
2022-12-23T05:58:15.499Z,88.91
2022-12-23T06:00:42.486Z,88.82
2022-12-23T06:03:09.389Z,88.57
2022-12-23T06:05:38.972Z,88.52
2022-12-23T06:08:05.934Z,88.63
2022-12-23T06:10:33.116Z,88.66
2022-12-23T06:12:59.735Z,88.72
2022-12-23T06:15:27.306Z,88.59
2022-12-23T06:17:55.944Z,88.24
2022-12-23T06:20:22.722Z,88.57
2022-12-23T06:22:49.357Z,88.13
2022-12-23T06:25:16.458Z,88.83
2022-12-23T06:27:43.167Z,88.57
2022-12-23T06:30:10.476Z,88.25
2022-12-23T06:32:38.763Z,88.54
2022-12-23T06:35:09.641Z,88.43
2022-12-23T06:37:36.392Z,88.61
2022-12-23T06:40:03.818Z,88.23
2022-12-23T06:42:30.522Z,88.50
2022-12-23T06:44:57.230Z,88.39
2022-12-23T06:47:24.002Z,88.73
2022-12-23T06:49:50.801Z,88.75
2022-12-23T06:52:17.678Z,88.47
2022-12-23T06:54:44.329Z,88.51
2022-12-23T06:57:11.057Z,88.66
2022-12-23T06:59:37.897Z,88.75
2022-12-23T07:02:12.098Z,88.39
2022-12-23T07:04:39.081Z,88.64
2022-12-23T07:07:24.027Z,88.30
2022-12-23T07:09:50.802Z,88.17
2022-12-23T07:12:19.939Z,88.37
2022-12-23T07:14:46.669Z,88.23
2022-12-23T07:17:13.621Z,88.48
2022-12-23T07:19:43.670Z,88.12
2022-12-23T07:22:10.972Z,88.12
2022-12-23T07:24:37.896Z,88.19
2022-12-23T07:27:05.360Z,88.09
2022-12-23T07:29:32.972Z,88.21
2022-12-23T07:32:04.572Z,88.02
2022-12-23T07:34:31.381Z,88.20
2022-12-23T07:36:58.148Z,88.14
2022-12-23T07:39:25.549Z,88.20
2022-12-23T07:42:16.355Z,87.85
2022-12-23T07:44:40.791Z,88.25
2022-12-23T07:47:07.713Z,88.31
2022-12-23T07:49:34.443Z,87.64
2022-12-23T07:52:02.881Z,87.94
2022-12-23T07:54:30.081Z,87.79
2022-12-23T07:56:58.214Z,87.56
2022-12-23T07:59:27.999Z,88.20
2022-12-23T08:01:54.771Z,88.37
2022-12-23T08:04:21.669Z,88.31
2022-12-23T08:06:48.521Z,88.12
2022-12-23T08:09:15.199Z,88.28
2022-12-23T08:11:41.891Z,88.22
2022-12-23T08:14:09.711Z,88.40
2022-12-23T08:16:43.096Z,88.47
2022-12-23T08:19:10.868Z,88.54
2022-12-23T08:21:37.907Z,88.69
2022-12-23T08:24:05.217Z,88.44
2022-12-23T08:26:33.838Z,88.84
2022-12-23T08:29:01.769Z,88.66
2022-12-23T08:31:33.891Z,89.11
2022-12-23T08:34:01.328Z,89.03
2022-12-23T08:36:34.339Z,89.03
2022-12-23T08:39:08.808Z,88.91
2022-12-23T08:41:44.844Z,89.28
2022-12-23T08:44:12.905Z,88.89
2022-12-23T08:46:40.637Z,89.14
2022-12-23T08:49:09.369Z,88.99
2022-12-23T08:51:50.730Z,89.46
2022-12-23T08:54:22.070Z,89.00
2022-12-23T08:56:51.983Z,88.92
2022-12-23T08:59:20.015Z,89.07
2022-12-23T09:01:47.834Z,89.32
2022-12-23T09:04:14.858Z,88.95
2022-12-23T09:06:42.869Z,89.08
2022-12-23T09:09:13.590Z,89.06
2022-12-23T09:11:40.611Z,89.17
2022-12-23T09:14:10.050Z,89.15
2022-12-23T09:16:37.323Z,89.12
2022-12-23T09:19:04.800Z,89.34
2022-12-23T09:21:31.831Z,88.79
2022-12-23T09:23:58.508Z,88.49
2022-12-23T09:26:28.466Z,88.85
2022-12-23T09:28:56.431Z,88.99
2022-12-23T09:31:23.991Z,88.71
2022-12-23T09:33:53.221Z,88.85
2022-12-23T09:36:22.043Z,88.76
2022-12-23T09:38:55.182Z,88.72
2022-12-23T09:41:49.250Z,89.08
2022-12-23T09:44:55.565Z,88.78
2022-12-23T09:47:25.575Z,88.79
2022-12-23T09:49:58.391Z,88.46
2022-12-23T09:52:43.483Z,88.65
2022-12-23T09:55:12.373Z,88.28
2022-12-23T09:58:03.943Z,88.50
2022-12-23T10:00:39.920Z,88.60
2022-12-23T10:04:20.570Z,88.82
2022-12-23T10:07:04.412Z,88.49
2022-12-23T10:09:33.269Z,88.43
2022-12-23T10:12:01.105Z,88.67
2022-12-23T10:14:33.995Z,88.69
2022-12-23T10:17:08.668Z,88.39
2022-12-23T10:19:47.632Z,88.57
2022-12-23T10:22:27.204Z,88.69
2022-12-23T10:24:56.894Z,88.49
2022-12-23T10:27:36.890Z,88.27
2022-12-23T10:30:57.435Z,88.35
2022-12-23T10:33:23.661Z,88.37
2022-12-23T10:36:20.564Z,88.82
2022-12-23T10:39:05.240Z,88.53
2022-12-23T10:41:48.687Z,88.50
2022-12-23T10:44:43.169Z,88.47
2022-12-23T10:47:25.157Z,88.11
2022-12-23T10:50:36.346Z,88.32
2022-12-23T10:53:10.488Z,88.32
2022-12-23T10:55:38.607Z,88.24
2022-12-23T10:58:15.474Z,88.12
2022-12-23T11:00:50.353Z,88.20
2022-12-23T11:03:24.021Z,88.03
2022-12-23T11:05:52.715Z,87.96
2022-12-23T11:08:22.250Z,87.82
2022-12-23T11:10:49.639Z,87.90
2022-12-23T11:13:33.715Z,87.49
2022-12-23T11:16:17.319Z,87.52
2022-12-23T11:18:56.207Z,87.80
2022-12-23T11:21:23.225Z,87.47
2022-12-23T11:24:16.077Z,87.03
2022-12-23T11:26:45.586Z,86.90
2022-12-23T11:29:24.123Z,87.21
2022-12-23T11:31:51.841Z,86.80
2022-12-23T11:34:26.008Z,86.87
2022-12-23T11:37:03.707Z,87.03
2022-12-23T11:39:37.013Z,86.82
2022-12-23T11:42:06.728Z,87.30
2022-12-23T11:44:37.787Z,87.09
2022-12-23T11:47:41.706Z,86.80
2022-12-23T11:50:30.613Z,86.86
2022-12-23T11:53:24.664Z,87.21
2022-12-23T11:56:13.447Z,86.95
2022-12-23T11:58:55.450Z,87.51
2022-12-23T12:01:25.278Z,87.99
2022-12-23T12:04:07.437Z,88.01
2022-12-23T12:06:34.826Z,88.52
2022-12-23T12:09:05.156Z,88.69
2022-12-23T12:11:39.319Z,89.09
2022-12-23T12:14:08.584Z,88.91
2022-12-23T12:17:03.259Z,89.28
2022-12-23T12:20:04.941Z,89.35
2022-12-23T12:22:48.023Z,89.54
2022-12-23T12:25:36.377Z,89.55
2022-12-23T12:28:14.878Z,89.45
2022-12-23T12:30:56.759Z,89.69
2022-12-23T12:33:33.826Z,89.51
2022-12-23T12:36:46.276Z,89.72
2022-12-23T12:39:38.353Z,90.12
2022-12-23T12:42:40.329Z,90.42
2022-12-23T12:45:34.424Z,90.78
2022-12-23T12:48:22.639Z,90.51
2022-12-23T12:51:21.112Z,91.05
2022-12-23T12:54:13.736Z,91.19
2022-12-23T12:56:54.965Z,91.12
2022-12-23T12:59:27.582Z,91.58
2022-12-23T13:02:39.540Z,91.53
2022-12-23T13:05:32.521Z,91.52
2022-12-23T13:08:21.354Z,91.74
2022-12-23T13:11:13.674Z,91.74
2022-12-23T13:14:13.331Z,91.49
2022-12-23T13:17:02.809Z,91.65
2022-12-23T13:20:08.370Z,88.15
2022-12-23T13:22:35.138Z,85.90
2022-12-23T13:25:23.390Z,87.59
2022-12-23T13:27:58.627Z,84.75
2022-12-23T13:30:35.552Z,83.42
2022-12-23T13:33:11.508Z,82.85
2022-12-23T13:36:06.254Z,81.52
2022-12-23T13:39:17.856Z,81.64
2022-12-23T13:41:50.046Z,81.61
2022-12-23T13:44:18.767Z,80.62
2022-12-23T13:47:05.319Z,79.37
2022-12-23T13:49:40.680Z,81.85
2022-12-23T13:52:29.504Z,82.79
2022-12-23T13:55:08.588Z,82.85
2022-12-23T13:58:10.767Z,81.73
2022-12-23T14:00:37.523Z,81.29
2022-12-23T14:03:16.803Z,81.97
2022-12-23T14:05:46.660Z,84.64
2022-12-23T14:08:19.491Z,86.90
2022-12-23T14:11:00.688Z,87.76
2022-12-23T14:13:36.884Z,88.27
2022-12-23T14:16:37.826Z,88.90
2022-12-23T14:19:19.791Z,89.70
2022-12-23T14:22:32.951Z,89.90
2022-12-23T14:25:17.876Z,90.15
2022-12-23T14:27:55.810Z,90.50
2022-12-23T14:30:35.160Z,90.47
2022-12-23T14:33:27.376Z,90.48
2022-12-23T14:36:24.696Z,90.58
2022-12-23T14:39:13.330Z,90.93
2022-12-23T14:41:51.274Z,91.21
2022-12-23T14:44:23.834Z,91.48
2022-12-23T14:46:50.497Z,91.33
2022-12-23T14:49:43.985Z,91.56
2022-12-23T14:52:39.317Z,91.32
2022-12-23T14:55:31.722Z,91.29
2022-12-23T14:58:17.521Z,91.31
2022-12-23T15:00:51.518Z,91.58
2022-12-23T15:03:20.292Z,91.82
2022-12-23T15:05:47.554Z,91.73
2022-12-23T15:08:41.598Z,91.91
2022-12-23T15:11:17.862Z,91.94
2022-12-23T15:13:45.037Z,91.92
2022-12-23T15:16:17.685Z,91.84
2022-12-23T15:18:56.752Z,92.24
2022-12-23T15:21:36.157Z,92.47
2022-12-23T15:24:03.002Z,92.25
2022-12-23T15:26:32.959Z,92.25
2022-12-23T15:29:00.522Z,92.18
2022-12-23T15:31:33.460Z,91.88
2022-12-23T15:34:13.086Z,92.41
2022-12-23T15:36:44.452Z,92.10
2022-12-23T15:39:21.220Z,92.43
2022-12-23T15:41:48.805Z,91.99
2022-12-23T15:44:23.117Z,92.01
2022-12-23T15:46:50.536Z,91.98
2022-12-23T15:49:20.055Z,91.91
2022-12-23T15:52:13.816Z,91.42
2022-12-23T15:55:12.338Z,91.74
2022-12-23T15:57:49.975Z,91.34
2022-12-23T16:00:23.968Z,91.26
2022-12-23T16:03:02.357Z,90.88
2022-12-23T16:05:37.333Z,91.33
2022-12-23T16:08:16.355Z,90.67
2022-12-23T16:11:13.246Z,90.69
2022-12-23T16:13:46.678Z,90.89
2022-12-23T16:16:43.438Z,90.84
2022-12-23T16:19:46.159Z,90.33
2022-12-23T16:22:30.179Z,89.85
2022-12-23T16:24:56.788Z,90.40
2022-12-23T16:27:41.868Z,90.03
2022-12-23T16:30:19.547Z,90.66
2022-12-23T16:32:56.855Z,90.10
2022-12-23T16:35:37.033Z,90.30
2022-12-23T16:38:24.508Z,90.30
2022-12-23T16:40:57.082Z,90.12
2022-12-23T16:43:25.295Z,89.46
2022-12-23T16:45:56.127Z,90.02
2022-12-23T16:48:41.597Z,89.80
2022-12-23T16:51:14.262Z,89.50
2022-12-23T16:53:41.088Z,89.87
2022-12-23T16:56:20.374Z,89.67
2022-12-23T16:58:47.292Z,89.43
2022-12-23T17:01:30.852Z,89.24
2022-12-23T17:03:57.906Z,88.89
2022-12-23T17:06:25.764Z,89.21
2022-12-23T17:08:53.515Z,89.33
2022-12-23T17:11:24.712Z,88.59
2022-12-23T17:13:51.742Z,88.62
2022-12-23T17:16:24.334Z,88.54
2022-12-23T17:18:53.181Z,88.46
2022-12-23T17:21:26.287Z,88.61
2022-12-23T17:23:56.594Z,88.11
2022-12-23T17:26:23.356Z,88.02
2022-12-23T17:28:50.470Z,87.89
2022-12-23T17:31:26.614Z,87.49
2022-12-23T17:33:54.536Z,87.66
2022-12-23T17:36:21.368Z,87.79
2022-12-23T17:38:48.251Z,87.46
2022-12-23T17:41:29.359Z,87.22
2022-12-23T17:43:56.778Z,86.56
2022-12-23T17:46:23.897Z,86.56
2022-12-23T17:48:51.125Z,86.21
2022-12-23T17:51:21.704Z,86.22
2022-12-23T17:53:56.872Z,86.26
2022-12-23T17:56:24.967Z,86.50
2022-12-23T17:58:52.006Z,86.09
2022-12-23T18:01:29.632Z,85.85
2022-12-23T18:03:58.912Z,85.83
2022-12-23T18:06:28.623Z,85.77
2022-12-23T18:08:58.974Z,85.80
2022-12-23T18:11:41.779Z,85.44
2022-12-23T18:14:17.702Z,84.75
2022-12-23T18:16:44.539Z,85.20
2022-12-23T18:19:21.034Z,85.17
2022-12-23T18:21:48.106Z,85.32
2022-12-23T18:24:15.290Z,85.22
2022-12-23T18:26:42.140Z,84.62
2022-12-23T18:29:08.927Z,84.04
2022-12-23T18:31:37.411Z,84.78
2022-12-23T18:34:04.552Z,84.16
2022-12-23T18:36:35.959Z,83.93
2022-12-23T18:39:02.700Z,83.66
2022-12-23T18:41:29.348Z,83.80
2022-12-23T18:43:56.621Z,83.66
2022-12-23T18:46:23.345Z,83.46
2022-12-23T18:48:51.431Z,83.23
2022-12-23T18:51:21.097Z,83.76
2022-12-23T18:53:48.436Z,83.14
2022-12-23T18:56:19.247Z,83.37
2022-12-23T18:58:46.044Z,83.09
2022-12-23T19:01:15.298Z,82.93
2022-12-23T19:03:43.039Z,82.93
2022-12-23T19:06:13.827Z,82.77
2022-12-23T19:08:41.757Z,83.49
2022-12-23T19:11:20.509Z,83.62
2022-12-23T19:13:48.706Z,83.60
2022-12-23T19:16:21.094Z,82.84
2022-12-23T19:18:49.522Z,82.80
2022-12-23T19:21:18.256Z,81.91
2022-12-23T19:23:45.469Z,82.17
2022-12-23T19:26:14.890Z,82.70
2022-12-23T19:28:42.543Z,81.89
2022-12-23T19:31:15.302Z,82.39
2022-12-23T19:33:44.344Z,81.84
2022-12-23T19:36:12.501Z,81.63
2022-12-23T19:38:39.492Z,81.48
2022-12-23T19:41:09.913Z,81.61
2022-12-23T19:43:38.629Z,81.68
2022-12-23T19:46:08.775Z,81.63
2022-12-23T19:48:35.935Z,81.44
2022-12-23T19:51:05.488Z,81.42
2022-12-23T19:53:32.716Z,81.64
2022-12-23T19:56:07.682Z,81.67
2022-12-23T19:58:37.618Z,81.36
2022-12-23T20:01:23.967Z,81.79
2022-12-23T20:03:53.454Z,81.36
2022-12-23T20:06:30.860Z,81.34
2022-12-23T20:09:00.878Z,81.47
2022-12-23T20:11:49.115Z,81.87
2022-12-23T20:14:21.843Z,82.37
2022-12-23T20:16:49.404Z,81.78
2022-12-23T20:19:18.973Z,81.84
2022-12-23T20:21:46.529Z,82.14
2022-12-23T20:24:15.098Z,82.30
2022-12-23T20:26:42.545Z,82.64
2022-12-23T20:29:10.093Z,82.58
2022-12-23T20:31:38.839Z,83.27
2022-12-23T20:34:08.491Z,83.01
2022-12-23T20:36:36.933Z,82.88
2022-12-23T20:39:05.273Z,83.11
2022-12-23T20:41:34.056Z,83.29
2022-12-23T20:44:33.047Z,83.04
2022-12-23T20:46:49.488Z,82.97
2022-12-23T20:49:16.293Z,83.20
2022-12-23T20:51:42.993Z,83.11
2022-12-23T20:54:09.761Z,82.79
2022-12-23T20:56:36.550Z,82.31
2022-12-23T20:59:03.993Z,82.00
2022-12-23T21:01:40.146Z,81.94
2022-12-23T21:04:11.946Z,82.29
2022-12-23T21:06:54.176Z,82.59
2022-12-23T21:09:20.856Z,82.38
2022-12-23T21:11:48.773Z,82.73
2022-12-23T21:14:16.076Z,82.91
2022-12-23T21:16:43.266Z,82.11
2022-12-23T21:19:16.977Z,82.16
2022-12-23T21:21:44.244Z,81.81
2022-12-23T21:24:11.302Z,81.52
2022-12-23T21:26:38.431Z,82.13
2022-12-23T21:29:07.855Z,82.05
2022-12-23T21:31:39.060Z,82.56
2022-12-23T21:34:07.025Z,83.38
2022-12-23T21:36:38.865Z,83.51
2022-12-23T21:39:08.043Z,83.83
2022-12-23T21:41:38.719Z,83.67
2022-12-23T21:44:05.992Z,83.70
2022-12-23T21:46:33.724Z,84.09
2022-12-23T21:49:00.648Z,83.80
2022-12-23T21:51:38.975Z,83.60
2022-12-23T21:54:07.037Z,83.96
2022-12-23T21:56:33.954Z,83.86
2022-12-23T21:59:04.914Z,83.24
2022-12-23T22:01:34.618Z,83.44
2022-12-23T22:04:01.630Z,82.75
2022-12-23T22:06:39.086Z,82.99
2022-12-23T22:09:07.664Z,82.48
2022-12-23T22:11:36.500Z,82.51
2022-12-23T22:14:06.380Z,82.45
2022-12-23T22:16:35.183Z,82.41
2022-12-23T22:19:04.358Z,82.54
2022-12-23T22:21:33.221Z,82.36
2022-12-23T22:24:00.155Z,82.27
2022-12-23T22:26:31.519Z,82.20
2022-12-23T22:29:02.420Z,82.07
2022-12-23T22:31:47.047Z,81.77
2022-12-23T22:34:19.993Z,81.54
2022-12-23T22:36:48.197Z,81.48
2022-12-23T22:39:21.099Z,80.88
2022-12-23T22:41:50.939Z,80.18
2022-12-23T22:44:18.650Z,80.24
2022-12-23T22:46:45.476Z,80.07
2022-12-23T22:49:13.453Z,80.04
2022-12-23T22:51:41.879Z,79.74
2022-12-23T22:54:09.059Z,79.50
2022-12-23T22:56:36.319Z,79.68
2022-12-23T22:59:03.140Z,79.17
2022-12-23T23:01:33.671Z,79.36
2022-12-23T23:04:02.865Z,79.66
2022-12-23T23:06:34.286Z,79.43
2022-12-23T23:09:01.444Z,79.29
2022-12-23T23:11:29.177Z,79.44
2022-12-23T23:13:56.561Z,78.83
2022-12-23T23:16:25.261Z,79.08
2022-12-23T23:18:53.731Z,78.91
2022-12-23T23:21:21.687Z,78.70
2022-12-23T23:23:49.773Z,78.28
2022-12-23T23:26:17.785Z,78.25
2022-12-23T23:28:45.086Z,77.97
2022-12-23T23:33:58.967Z,78.02
2022-12-23T23:36:25.931Z,77.82
2022-12-23T23:38:52.628Z,77.41
2022-12-23T23:41:23.231Z,77.25
2022-12-23T23:43:51.892Z,77.30
2022-12-23T23:46:18.750Z,77.50
2022-12-23T23:48:45.641Z,77.51
2022-12-23T23:51:12.738Z,77.24
2022-12-23T23:53:40.191Z,77.28
2022-12-23T23:56:08.361Z,77.25
2022-12-23T23:58:36.837Z,77.11
